Penns Park, Pennsylvania
Current Conditions -  °F | °C
As of 9:54 AM on Thursday 23 Oct 2014 (Local Time) from KDYL Reporting Station
Light Rain Light Rain  
Wind Chill: 45°   Ceiling: 5500
Heat Index: 48°   Visibility: 10mi
Dew Point: 46°   Wind: 7mph
Humidity: 93%   Direction: 330°NNW
Pressure: 29.77"   Gusts: 17mph
Location:  40.27°N, 75°W
Report Text: KDYL 231354Z AUTO 33006G15KT 10SM -RA FEW045 BKN055 OVC070 09/08 A2977 RMK AO2 RAE07B25 SLP084 P0003 T00890078 $
Loading
Personal Weather Stations






























Interactive Weather Map
Tropical Storm Tracking
New forecast layout! Learn more

10-Day Weather Forecast

Advertisements
Track Severe Weather on mobile